F\v Desperado — FVFQ — position and weather

sailwx.info

Track history (hours):
 
Tides and Currents Weather Stations Pressure Air Temp Water Temp Dewpoint Dewpoint Depression Visibility Wind Speed Wind Dir Waves Ship Positions

F\v Desperado

Last reported at 2015-May-28 20:18 UTC. Time now 2015-May-29 20:18 UTC.
Position N 47°23' W 003°56'.

Type: Fishing. MMSI: 228312000.

Date/timePositionNaut miles runAvg speedWind from/ knotsBaromVisibWave heightAir tempDewpointWater temp
2015-May-28 20:18N 47°23' W 003°56'4 3.3
2015-May-28 19:13N 47°27' W 003°55'3 3.4
2015-May-28 18:24N 47°30' W 003°55'23 1.5
2015-May-28 03:21N 47°53' W 003°55'0 0.0
2015-May-28 02:27N 47°53' W 003°55'  
2015-May-21 21:06N 47°40' W 003°46'7 8.0
2015-May-21 20:12N 47°33' W 003°40'99 2.4
2015-May-20 03:33N 46°21' W 002°01'8 7.9
2015-May-20 02:33N 46°26' W 001°52'5 5.4
2015-May-20 01:34N 46°30' W 001°47'1 1.3
2015-May-20 00:34N 46°29' W 001°47'  
Track history (hours):
 
Tides and Currents Weather Stations Pressure Air Temp Water Temp Dewpoint Dewpoint Depression Visibility Wind Speed Wind Dir Waves Ship Positions

F\v Desperado

Last reported at 2015-May-28 20:18 UTC. Time now 2015-May-29 20:18 UTC.
Position N 47°23' W 003°56'.

Type: Fishing. MMSI: 228312000.

Date/timePositionNaut miles runAvg speedWind from/ knotsBaromVisibWave heightAir tempDewpointWater temp
2015-May-28 20:18N 47°23' W 003°56'4 3.3
2015-May-28 19:13N 47°27' W 003°55'3 3.4
2015-May-28 18:24N 47°30' W 003°55'23 1.5
2015-May-28 03:21N 47°53' W 003°55'0 0.0
2015-May-28 02:27N 47°53' W 003°55'  
2015-May-21 21:06N 47°40' W 003°46'7 8.0
2015-May-21 20:12N 47°33' W 003°40'99 2.4
2015-May-20 03:33N 46°21' W 002°01'8 7.9
2015-May-20 02:33N 46°26' W 001°52'5 5.4
2015-May-20 01:34N 46°30' W 001°47'1 1.3
2015-May-20 00:34N 46°29' W 001°47'  

Dump ship's entire track history